sensor_id;sensor_type;location;lat;lon;timestamp;temperature;humidity
38209;DHT22;24016;52.102;11.584;2023-11-18T00:01:30;2.00;99.90
38209;DHT22;24016;52.102;11.584;2023-11-18T00:03:55;2.00;99.90
38209;DHT22;24016;52.102;11.584;2023-11-18T00:06:21;2.00;99.90
38209;DHT22;24016;52.102;11.584;2023-11-18T00:08:47;2.00;99.90
38209;DHT22;24016;52.102;11.584;2023-11-18T00:11:12;2.00;99.90
38209;DHT22;24016;52.102;11.584;2023-11-18T00:13:39;2.00;99.90
38209;DHT22;24016;52.102;11.584;2023-11-18T00:16:10;2.10;99.90
38209;DHT22;24016;52.102;11.584;2023-11-18T00:18:41;2.10;99.90
38209;DHT22;24016;52.102;11.584;2023-11-18T00:21:07;2.10;99.90
38209;DHT22;24016;52.102;11.584;2023-11-18T00:23:35;2.10;99.90
38209;DHT22;24016;52.102;11.584;2023-11-18T00:26:01;2.10;99.90
38209;DHT22;24016;52.102;11.584;2023-11-18T00:28:27;2.10;99.90
38209;DHT22;24016;52.102;11.584;2023-11-18T00:30:53;2.10;99.90
38209;DHT22;24016;52.102;11.584;2023-11-18T00:33:18;2.10;99.90
38209;DHT22;24016;52.102;11.584;2023-11-18T00:35:44;2.10;99.90
38209;DHT22;24016;52.102;11.584;2023-11-18T00:38:11;2.10;99.90
38209;DHT22;24016;52.102;11.584;2023-11-18T00:40:36;2.10;99.90
38209;DHT22;24016;52.102;11.584;2023-11-18T00:43:02;2.10;99.90
38209;DHT22;24016;52.102;11.584;2023-11-18T00:45:28;2.00;99.90
38209;DHT22;24016;52.102;11.584;2023-11-18T00:47:54;1.90;99.90
38209;DHT22;24016;52.102;11.584;2023-11-18T00:50:20;1.80;99.90
38209;DHT22;24016;52.102;11.584;2023-11-18T00:52:45;1.70;99.90
38209;DHT22;24016;52.102;11.584;2023-11-18T00:55:13;1.60;99.90
38209;DHT22;24016;52.102;11.584;2023-11-18T00:57:39;1.40;99.90
38209;DHT22;24016;52.102;11.584;2023-11-18T01:00:07;1.30;99.90
38209;DHT22;24016;52.102;11.584;2023-11-18T01:02:32;1.20;99.90
38209;DHT22;24016;52.102;11.584;2023-11-18T01:04:58;1.10;99.90
38209;DHT22;24016;52.102;11.584;2023-11-18T01:07:24;1.00;99.90
38209;DHT22;24016;52.102;11.584;2023-11-18T01:09:50;0.90;99.90
38209;DHT22;24016;52.102;11.584;2023-11-18T01:12:15;0.80;99.90
38209;DHT22;24016;52.102;11.584;2023-11-18T01:14:41;0.80;99.90
38209;DHT22;24016;52.102;11.584;2023-11-18T01:17:07;0.70;99.90
38209;DHT22;24016;52.102;11.584;2023-11-18T01:19:34;0.60;99.90
38209;DHT22;24016;52.102;11.584;2023-11-18T01:22:01;0.50;99.90
38209;DHT22;24016;52.102;11.584;2023-11-18T01:24:30;0.40;99.90
38209;DHT22;24016;52.102;11.584;2023-11-18T01:26:56;0.30;99.90
38209;DHT22;24016;52.102;11.584;2023-11-18T01:29:21;0.30;99.90
38209;DHT22;24016;52.102;11.584;2023-11-18T01:31:47;0.20;99.90
38209;DHT22;24016;52.102;11.584;2023-11-18T01:34:13;0.20;99.90
38209;DHT22;24016;52.102;11.584;2023-11-18T01:36:38;0.20;99.90
38209;DHT22;24016;52.102;11.584;2023-11-18T01:39:04;0.10;99.90
38209;DHT22;24016;52.102;11.584;2023-11-18T01:41:30;0.10;99.90
38209;DHT22;24016;52.102;11.584;2023-11-18T01:43:58;0.10;99.90
38209;DHT22;24016;52.102;11.584;2023-11-18T01:46:24;0.00;99.90
38209;DHT22;24016;52.102;11.584;2023-11-18T01:48:50;0.00;99.90
38209;DHT22;24016;52.102;11.584;2023-11-18T01:51:16;0.00;99.90
38209;DHT22;24016;52.102;11.584;2023-11-18T01:53:47;0.00;99.90
38209;DHT22;24016;52.102;11.584;2023-11-18T01:56:13;-0.10;99.90
38209;DHT22;24016;52.102;11.584;2023-11-18T01:58:40;-0.10;99.90
38209;DHT22;24016;52.102;11.584;2023-11-18T02:01:06;-0.10;99.90
38209;DHT22;24016;52.102;11.584;2023-11-18T02:03:34;0.00;99.90
38209;DHT22;24016;52.102;11.584;2023-11-18T02:06:00;-0.10;99.90
38209;DHT22;24016;52.102;11.584;2023-11-18T02:08:25;-0.10;99.90
38209;DHT22;24016;52.102;11.584;2023-11-18T02:11:01;-0.10;99.90
38209;DHT22;24016;52.102;11.584;2023-11-18T02:13:34;0.00;99.90
38209;DHT22;24016;52.102;11.584;2023-11-18T02:16:02;0.00;99.90
38209;DHT22;24016;52.102;11.584;2023-11-18T02:18:29;0.00;99.90
38209;DHT22;24016;52.102;11.584;2023-11-18T02:20:56;0.00;99.90
38209;DHT22;24016;52.102;11.584;2023-11-18T02:23:27;0.00;99.90
38209;DHT22;24016;52.102;11.584;2023-11-18T02:25:53;0.00;99.90
38209;DHT22;24016;52.102;11.584;2023-11-18T02:28:21;0.00;99.90
38209;DHT22;24016;52.102;11.584;2023-11-18T02:33:59;0.00;99.90
38209;DHT22;24016;52.102;11.584;2023-11-18T02:36:31;-0.10;99.90
38209;DHT22;24016;52.102;11.584;2023-11-18T02:39:08;-0.10;99.90
38209;DHT22;24016;52.102;11.584;2023-11-18T02:41:35;0.00;99.90
38209;DHT22;24016;52.102;11.584;2023-11-18T02:44:03;0.00;99.90
38209;DHT22;24016;52.102;11.584;2023-11-18T02:46:34;0.10;99.90
38209;DHT22;24016;52.102;11.584;2023-11-18T02:49:00;0.10;99.90
38209;DHT22;24016;52.102;11.584;2023-11-18T02:51:26;0.10;99.90
38209;DHT22;24016;52.102;11.584;2023-11-18T02:53:51;0.10;99.90
38209;DHT22;24016;52.102;11.584;2023-11-18T02:56:17;0.10;99.90
38209;DHT22;24016;52.102;11.584;2023-11-18T02:58:44;0.10;99.90
38209;DHT22;24016;52.102;11.584;2023-11-18T03:01:10;0.10;99.90
38209;DHT22;24016;52.102;11.584;2023-11-18T03:03:35;0.10;99.90
38209;DHT22;24016;52.102;11.584;2023-11-18T03:06:01;0.10;99.90
38209;DHT22;24016;52.102;11.584;2023-11-18T03:08:27;0.10;99.90
38209;DHT22;24016;52.102;11.584;2023-11-18T03:10:55;0.10;99.90
38209;DHT22;24016;52.102;11.584;2023-11-18T03:13:21;0.20;99.90
38209;DHT22;24016;52.102;11.584;2023-11-18T03:15:49;0.20;99.90
38209;DHT22;24016;52.102;11.584;2023-11-18T03:18:15;0.20;99.90
38209;DHT22;24016;52.102;11.584;2023-11-18T03:20:41;0.20;99.90
38209;DHT22;24016;52.102;11.584;2023-11-18T03:23:06;0.20;99.90
38209;DHT22;24016;52.102;11.584;2023-11-18T03:25:34;0.30;99.90
38209;DHT22;24016;52.102;11.584;2023-11-18T03:28:00;0.30;99.90
38209;DHT22;24016;52.102;11.584;2023-11-18T03:30:26;0.40;99.90
38209;DHT22;24016;52.102;11.584;2023-11-18T03:32:54;0.50;99.90
38209;DHT22;24016;52.102;11.584;2023-11-18T03:35:20;0.60;99.90
38209;DHT22;24016;52.102;11.584;2023-11-18T03:37:46;0.60;99.90
38209;DHT22;24016;52.102;11.584;2023-11-18T03:40:14;0.70;99.90
38209;DHT22;24016;52.102;11.584;2023-11-18T03:42:43;0.70;99.90
38209;DHT22;24016;52.102;11.584;2023-11-18T03:45:11;0.70;99.90
38209;DHT22;24016;52.102;11.584;2023-11-18T03:47:39;0.70;99.90
38209;DHT22;24016;52.102;11.584;2023-11-18T03:50:05;0.70;99.90
38209;DHT22;24016;52.102;11.584;2023-11-18T03:52:31;0.70;99.90
38209;DHT22;24016;52.102;11.584;2023-11-18T03:54:56;0.80;99.90
38209;DHT22;24016;52.102;11.584;2023-11-18T03:57:22;0.90;99.90
38209;DHT22;24016;52.102;11.584;2023-11-18T03:59:48;1.00;99.90
38209;DHT22;24016;52.102;11.584;2023-11-18T04:02:13;1.00;99.90
38209;DHT22;24016;52.102;11.584;2023-11-18T04:04:39;1.10;99.90
38209;DHT22;24016;52.102;11.584;2023-11-18T04:07:05;1.10;99.90
38209;DHT22;24016;52.102;11.584;2023-11-18T04:09:32;1.20;99.90
38209;DHT22;24016;52.102;11.584;2023-11-18T04:11:57;1.30;99.90
38209;DHT22;24016;52.102;11.584;2023-11-18T04:14:23;1.40;99.90
38209;DHT22;24016;52.102;11.584;2023-11-18T04:16:51;1.40;99.90
38209;DHT22;24016;52.102;11.584;2023-11-18T04:19:16;1.40;99.90
38209;DHT22;24016;52.102;11.584;2023-11-18T04:21:42;1.40;99.90
38209;DHT22;24016;52.102;11.584;2023-11-18T04:24:09;1.40;99.90
38209;DHT22;24016;52.102;11.584;2023-11-18T04:26:35;1.40;99.90
38209;DHT22;24016;52.102;11.584;2023-11-18T04:29:00;1.40;99.90
38209;DHT22;24016;52.102;11.584;2023-11-18T04:31:26;1.40;99.90
38209;DHT22;24016;52.102;11.584;2023-11-18T04:33:51;1.40;99.90
38209;DHT22;24016;52.102;11.584;2023-11-18T04:36:17;1.40;99.90
38209;DHT22;24016;52.102;11.584;2023-11-18T04:38:44;1.50;99.90
38209;DHT22;24016;52.102;11.584;2023-11-18T04:41:10;1.50;99.90
38209;DHT22;24016;52.102;11.584;2023-11-18T04:43:36;1.50;99.90
38209;DHT22;24016;52.102;11.584;2023-11-18T04:46:01;1.50;99.90
38209;DHT22;24016;52.102;11.584;2023-11-18T04:48:27;1.60;99.90
38209;DHT22;24016;52.102;11.584;2023-11-18T04:50:53;1.60;99.90
38209;DHT22;24016;52.102;11.584;2023-11-18T04:53:18;1.60;99.90
38209;DHT22;24016;52.102;11.584;2023-11-18T04:55:44;1.60;99.90
38209;DHT22;24016;52.102;11.584;2023-11-18T04:58:10;1.70;99.90
38209;DHT22;24016;52.102;11.584;2023-11-18T05:00:39;1.70;99.90
38209;DHT22;24016;52.102;11.584;2023-11-18T05:03:05;1.70;99.90
38209;DHT22;24016;52.102;11.584;2023-11-18T05:05:35;1.70;99.90
38209;DHT22;24016;52.102;11.584;2023-11-18T05:08:04;1.80;99.90
38209;DHT22;24016;52.102;11.584;2023-11-18T05:10:29;1.80;99.90
38209;DHT22;24016;52.102;11.584;2023-11-18T05:12:55;1.80;99.90
38209;DHT22;24016;52.102;11.584;2023-11-18T05:15:21;1.80;99.90
38209;DHT22;24016;52.102;11.584;2023-11-18T05:17:50;1.80;99.90
38209;DHT22;24016;52.102;11.584;2023-11-18T05:20:16;1.80;99.90
38209;DHT22;24016;52.102;11.584;2023-11-18T05:22:43;1.80;99.90
38209;DHT22;24016;52.102;11.584;2023-11-18T05:25:09;1.80;99.90
38209;DHT22;24016;52.102;11.584;2023-11-18T05:27:35;1.80;99.90
38209;DHT22;24016;52.102;11.584;2023-11-18T05:30:01;1.80;99.90
38209;DHT22;24016;52.102;11.584;2023-11-18T05:32:27;1.80;99.90
38209;DHT22;24016;52.102;11.584;2023-11-18T05:34:53;1.80;99.90
38209;DHT22;24016;52.102;11.584;2023-11-18T05:37:24;1.80;99.90
38209;DHT22;24016;52.102;11.584;2023-11-18T05:39:50;1.90;99.90
38209;DHT22;24016;52.102;11.584;2023-11-18T05:42:25;1.80;99.90
38209;DHT22;24016;52.102;11.584;2023-11-18T05:44:51;1.80;99.90
38209;DHT22;24016;52.102;11.584;2023-11-18T05:47:24;1.70;99.90
38209;DHT22;24016;52.102;11.584;2023-11-18T05:49:51;1.60;99.90
38209;DHT22;24016;52.102;11.584;2023-11-18T05:52:17;1.50;99.90
38209;DHT22;24016;52.102;11.584;2023-11-18T05:54:42;1.30;99.90
38209;DHT22;24016;52.102;11.584;2023-11-18T05:57:08;1.10;99.90
38209;DHT22;24016;52.102;11.584;2023-11-18T05:59:34;1.00;99.90
38209;DHT22;24016;52.102;11.584;2023-11-18T06:01:59;0.80;99.90
38209;DHT22;24016;52.102;11.584;2023-11-18T06:04:25;0.80;99.90
38209;DHT22;24016;52.102;11.584;2023-11-18T06:06:51;0.70;99.90
38209;DHT22;24016;52.102;11.584;2023-11-18T06:09:17;0.60;99.90
38209;DHT22;24016;52.102;11.584;2023-11-18T06:11:51;0.50;99.90
38209;DHT22;24016;52.102;11.584;2023-11-18T06:14:19;0.30;99.90
38209;DHT22;24016;52.102;11.584;2023-11-18T06:16:44;0.30;99.90
38209;DHT22;24016;52.102;11.584;2023-11-18T06:19:10;0.30;99.90
38209;DHT22;24016;52.102;11.584;2023-11-18T06:21:36;0.10;99.90
38209;DHT22;24016;52.102;11.584;2023-11-18T06:24:02;0.00;99.90
38209;DHT22;24016;52.102;11.584;2023-11-18T06:26:31;0.00;99.90
38209;DHT22;24016;52.102;11.584;2023-11-18T06:28:57;-0.10;99.90
38209;DHT22;24016;52.102;11.584;2023-11-18T06:31:24;-0.10;99.90
38209;DHT22;24016;52.102;11.584;2023-11-18T06:33:50;-0.10;99.90
38209;DHT22;24016;52.102;11.584;2023-11-18T06:38:51;-0.10;99.90
38209;DHT22;24016;52.102;11.584;2023-11-18T06:41:21;-0.20;99.90
38209;DHT22;24016;52.102;11.584;2023-11-18T06:43:49;-0.20;99.90
38209;DHT22;24016;52.102;11.584;2023-11-18T06:46:29;-0.20;99.90
38209;DHT22;24016;52.102;11.584;2023-11-18T06:48:59;-0.10;99.90
38209;DHT22;24016;52.102;11.584;2023-11-18T06:51:26;-0.10;99.90
38209;DHT22;24016;52.102;11.584;2023-11-18T06:53:53;-0.20;99.90
38209;DHT22;24016;52.102;11.584;2023-11-18T06:56:28;-0.20;99.90
38209;DHT22;24016;52.102;11.584;2023-11-18T06:58:54;-0.30;99.90
38209;DHT22;24016;52.102;11.584;2023-11-18T07:01:20;-0.30;99.90
38209;DHT22;24016;52.102;11.584;2023-11-18T07:03:47;-0.40;99.90
38209;DHT22;24016;52.102;11.584;2023-11-18T07:06:20;-0.40;99.90
38209;DHT22;24016;52.102;11.584;2023-11-18T07:08:52;-0.40;99.90
38209;DHT22;24016;52.102;11.584;2023-11-18T07:11:19;-0.50;99.90
38209;DHT22;24016;52.102;11.584;2023-11-18T07:13:48;-0.50;99.90
38209;DHT22;24016;52.102;11.584;2023-11-18T07:16:25;-0.50;99.90
38209;DHT22;24016;52.102;11.584;2023-11-18T07:18:51;-0.40;99.90
38209;DHT22;24016;52.102;11.584;2023-11-18T07:21:17;-0.40;99.90
38209;DHT22;24016;52.102;11.584;2023-11-18T07:23:43;-0.40;99.90
38209;DHT22;24016;52.102;11.584;2023-11-18T07:26:08;-0.40;99.90
38209;DHT22;24016;52.102;11.584;2023-11-18T07:28:35;-0.30;99.90
38209;DHT22;24016;52.102;11.584;2023-11-18T07:31:01;-0.30;99.90
38209;DHT22;24016;52.102;11.584;2023-11-18T07:33:30;-0.20;99.90
38209;DHT22;24016;52.102;11.584;2023-11-18T07:35:59;-0.20;99.90
38209;DHT22;24016;52.102;11.584;2023-11-18T07:38:24;-0.20;99.90
38209;DHT22;24016;52.102;11.584;2023-11-18T07:40:51;-0.20;99.90
38209;DHT22;24016;52.102;11.584;2023-11-18T07:43:22;-0.20;99.90
38209;DHT22;24016;52.102;11.584;2023-11-18T07:45:48;-0.10;99.90
38209;DHT22;24016;52.102;11.584;2023-11-18T07:48:19;0.00;99.90
38209;DHT22;24016;52.102;11.584;2023-11-18T07:50:46;0.00;99.90
38209;DHT22;24016;52.102;11.584;2023-11-18T07:53:15;0.10;99.90
38209;DHT22;24016;52.102;11.584;2023-11-18T07:55:41;0.20;99.90
38209;DHT22;24016;52.102;11.584;2023-11-18T07:58:08;0.40;99.90
38209;DHT22;24016;52.102;11.584;2023-11-18T08:00:43;0.70;99.90
38209;DHT22;24016;52.102;11.584;2023-11-18T08:03:12;0.80;99.90
38209;DHT22;24016;52.102;11.584;2023-11-18T08:05:43;0.90;99.90
38209;DHT22;24016;52.102;11.584;2023-11-18T08:08:13;1.00;99.90
38209;DHT22;24016;52.102;11.584;2023-11-18T08:10:39;1.00;99.90
38209;DHT22;24016;52.102;11.584;2023-11-18T08:13:06;1.10;99.90
38209;DHT22;24016;52.102;11.584;2023-11-18T08:15:33;1.20;99.90
38209;DHT22;24016;52.102;11.584;2023-11-18T08:18:00;1.40;99.90
38209;DHT22;24016;52.102;11.584;2023-11-18T08:20:25;1.50;99.90
38209;DHT22;24016;52.102;11.584;2023-11-18T08:22:51;1.50;99.90
38209;DHT22;24016;52.102;11.584;2023-11-18T08:25:17;1.60;99.90
38209;DHT22;24016;52.102;11.584;2023-11-18T08:27:43;1.70;99.90
38209;DHT22;24016;52.102;11.584;2023-11-18T08:30:11;1.80;99.90
38209;DHT22;24016;52.102;11.584;2023-11-18T08:32:39;1.90;99.90
38209;DHT22;24016;52.102;11.584;2023-11-18T08:35:06;2.10;99.90
38209;DHT22;24016;52.102;11.584;2023-11-18T08:37:33;2.20;99.90
38209;DHT22;24016;52.102;11.584;2023-11-18T08:40:02;2.30;99.90
38209;DHT22;24016;52.102;11.584;2023-11-18T08:42:28;2.30;99.90
38209;DHT22;24016;52.102;11.584;2023-11-18T08:44:57;2.50;99.90
38209;DHT22;24016;52.102;11.584;2023-11-18T08:47:25;2.50;99.90
38209;DHT22;24016;52.102;11.584;2023-11-18T08:49:50;2.60;99.90
38209;DHT22;24016;52.102;11.584;2023-11-18T08:52:17;2.70;99.90
38209;DHT22;24016;52.102;11.584;2023-11-18T08:54:45;2.70;99.90
38209;DHT22;24016;52.102;11.584;2023-11-18T08:57:29;2.80;99.90
38209;DHT22;24016;52.102;11.584;2023-11-18T09:00:17;2.90;99.90
38209;DHT22;24016;52.102;11.584;2023-11-18T09:03:03;3.10;99.90
38209;DHT22;24016;52.102;11.584;2023-11-18T09:05:32;3.30;99.90
38209;DHT22;24016;52.102;11.584;2023-11-18T09:07:58;3.50;99.90
38209;DHT22;24016;52.102;11.584;2023-11-18T09:10:26;3.60;99.90
38209;DHT22;24016;52.102;11.584;2023-11-18T09:12:54;3.70;99.90
38209;DHT22;24016;52.102;11.584;2023-11-18T09:15:20;3.80;99.90
38209;DHT22;24016;52.102;11.584;2023-11-18T09:17:50;4.00;99.90
38209;DHT22;24016;52.102;11.584;2023-11-18T09:20:16;4.10;99.90
38209;DHT22;24016;52.102;11.584;2023-11-18T09:22:46;4.30;99.90
38209;DHT22;24016;52.102;11.584;2023-11-18T09:25:11;4.40;99.90
38209;DHT22;24016;52.102;11.584;2023-11-18T09:27:37;4.70;99.90
38209;DHT22;24016;52.102;11.584;2023-11-18T09:30:05;5.00;99.90
38209;DHT22;24016;52.102;11.584;2023-11-18T09:32:40;5.00;99.90
38209;DHT22;24016;52.102;11.584;2023-11-18T09:35:08;4.90;99.90
38209;DHT22;24016;52.102;11.584;2023-11-18T09:37:35;5.00;99.90
38209;DHT22;24016;52.102;11.584;2023-11-18T09:40:02;5.30;99.90
38209;DHT22;24016;52.102;11.584;2023-11-18T09:42:37;5.70;99.90
38209;DHT22;24016;52.102;11.584;2023-11-18T09:45:05;6.50;99.90
38209;DHT22;24016;52.102;11.584;2023-11-18T09:47:36;7.30;99.90
38209;DHT22;24016;52.102;11.584;2023-11-18T09:50:08;7.80;99.90
38209;DHT22;24016;52.102;11.584;2023-11-18T09:52:39;8.20;99.90
38209;DHT22;24016;52.102;11.584;2023-11-18T09:55:15;8.60;99.90
38209;DHT22;24016;52.102;11.584;2023-11-18T09:57:49;8.80;99.90
38209;DHT22;24016;52.102;11.584;2023-11-18T10:00:23;8.50;99.90
38209;DHT22;24016;52.102;11.584;2023-11-18T10:02:58;8.70;99.90
38209;DHT22;24016;52.102;11.584;2023-11-18T10:05:26;8.80;99.90
38209;DHT22;24016;52.102;11.584;2023-11-18T10:07:53;8.20;99.90
38209;DHT22;24016;52.102;11.584;2023-11-18T10:10:22;8.20;99.90
38209;DHT22;24016;52.102;11.584;2023-11-18T10:12:49;8.40;99.90
38209;DHT22;24016;52.102;11.584;2023-11-18T10:15:21;8.30;99.90
38209;DHT22;24016;52.102;11.584;2023-11-18T10:17:51;8.60;99.90
38209;DHT22;24016;52.102;11.584;2023-11-18T10:20:51;8.80;99.90
38209;DHT22;24016;52.102;11.584;2023-11-18T10:23:21;8.80;99.90
38209;DHT22;24016;52.102;11.584;2023-11-18T10:25:51;8.90;99.90
38209;DHT22;24016;52.102;11.584;2023-11-18T10:28:31;9.00;99.90
38209;DHT22;24016;52.102;11.584;2023-11-18T10:31:08;9.20;99.90
38209;DHT22;24016;52.102;11.584;2023-11-18T10:33:39;9.10;99.90
38209;DHT22;24016;52.102;11.584;2023-11-18T10:36:17;9.10;99.90
38209;DHT22;24016;52.102;11.584;2023-11-18T10:38:48;8.90;99.90
38209;DHT22;24016;52.102;11.584;2023-11-18T10:41:15;9.10;99.90
38209;DHT22;24016;52.102;11.584;2023-11-18T10:43:42;9.30;99.90
38209;DHT22;24016;52.102;11.584;2023-11-18T10:46:13;9.70;99.90
38209;DHT22;24016;52.102;11.584;2023-11-18T10:48:50;9.80;99.90
38209;DHT22;24016;52.102;11.584;2023-11-18T10:51:17;9.70;99.90
38209;DHT22;24016;52.102;11.584;2023-11-18T10:53:51;9.70;99.90
38209;DHT22;24016;52.102;11.584;2023-11-18T10:56:24;9.50;99.90
38209;DHT22;24016;52.102;11.584;2023-11-18T10:58:53;9.70;99.90
38209;DHT22;24016;52.102;11.584;2023-11-18T11:01:31;9.80;99.90
38209;DHT22;24016;52.102;11.584;2023-11-18T11:03:57;9.70;99.90
38209;DHT22;24016;52.102;11.584;2023-11-18T11:06:24;9.40;99.90
38209;DHT22;24016;52.102;11.584;2023-11-18T11:08:53;9.40;99.90
38209;DHT22;24016;52.102;11.584;2023-11-18T11:11:20;9.30;99.90
38209;DHT22;24016;52.102;11.584;2023-11-18T11:13:56;9.60;99.90
38209;DHT22;24016;52.102;11.584;2023-11-18T11:16:23;9.80;99.90
38209;DHT22;24016;52.102;11.584;2023-11-18T11:18:55;9.90;99.90
38209;DHT22;24016;52.102;11.584;2023-11-18T11:21:25;10.10;99.90
38209;DHT22;24016;52.102;11.584;2023-11-18T11:23:57;10.30;99.90
38209;DHT22;24016;52.102;11.584;2023-11-18T11:26:34;10.10;99.90
38209;DHT22;24016;52.102;11.584;2023-11-18T11:31:41;8.30;99.90
38209;DHT22;24016;52.102;11.584;2023-11-18T11:34:18;7.70;99.90
38209;DHT22;24016;52.102;11.584;2023-11-18T11:36:50;7.40;99.90
38209;DHT22;24016;52.102;11.584;2023-11-18T11:39:18;7.30;99.90
38209;DHT22;24016;52.102;11.584;2023-11-18T11:41:52;7.30;99.90
38209;DHT22;24016;52.102;11.584;2023-11-18T11:44:20;7.30;99.90
38209;DHT22;24016;52.102;11.584;2023-11-18T11:46:49;7.60;99.90
38209;DHT22;24016;52.102;11.584;2023-11-18T11:49:20;8.10;99.90
38209;DHT22;24016;52.102;11.584;2023-11-18T11:51:49;8.80;99.90
38209;DHT22;24016;52.102;11.584;2023-11-18T11:54:34;9.30;99.90
38209;DHT22;24016;52.102;11.584;2023-11-18T11:57:02;10.00;99.90
38209;DHT22;24016;52.102;11.584;2023-11-18T12:02:20;9.30;99.90
38209;DHT22;24016;52.102;11.584;2023-11-18T12:04:50;8.60;99.90
38209;DHT22;24016;52.102;11.584;2023-11-18T12:07:20;7.90;99.90
38209;DHT22;24016;52.102;11.584;2023-11-18T12:09:56;7.70;99.90
38209;DHT22;24016;52.102;11.584;2023-11-18T12:12:25;7.60;99.90
38209;DHT22;24016;52.102;11.584;2023-11-18T12:14:57;7.30;99.90
38209;DHT22;24016;52.102;11.584;2023-11-18T12:17:26;7.00;99.90
38209;DHT22;24016;52.102;11.584;2023-11-18T12:19:57;6.90;99.90
38209;DHT22;24016;52.102;11.584;2023-11-18T12:23:04;6.80;99.90
38209;DHT22;24016;52.102;11.584;2023-11-18T12:25:40;6.60;99.90
38209;DHT22;24016;52.102;11.584;2023-11-18T12:28:16;6.40;99.90
38209;DHT22;24016;52.102;11.584;2023-11-18T12:30:44;6.20;99.90
38209;DHT22;24016;52.102;11.584;2023-11-18T12:33:18;6.10;99.90
38209;DHT22;24016;52.102;11.584;2023-11-18T12:36:14;6.10;99.90
38209;DHT22;24016;52.102;11.584;2023-11-18T12:41:35;6.20;99.90
38209;DHT22;24016;52.102;11.584;2023-11-18T12:49:22;6.20;99.90
38209;DHT22;24016;52.102;11.584;2023-11-18T12:51:50;6.20;99.90
38209;DHT22;24016;52.102;11.584;2023-11-18T12:54:21;6.00;99.90
38209;DHT22;24016;52.102;11.584;2023-11-18T12:56:50;6.00;99.90
38209;DHT22;24016;52.102;11.584;2023-11-18T12:59:19;6.00;99.90
38209;DHT22;24016;52.102;11.584;2023-11-18T13:01:49;6.10;99.90
38209;DHT22;24016;52.102;11.584;2023-11-18T13:04:32;6.00;99.90
38209;DHT22;24016;52.102;11.584;2023-11-18T13:07:00;5.90;99.90
38209;DHT22;24016;52.102;11.584;2023-11-18T13:09:26;5.90;99.90
38209;DHT22;24016;52.102;11.584;2023-11-18T13:11:58;5.90;99.90
38209;DHT22;24016;52.102;11.584;2023-11-18T13:14:26;5.90;99.90
38209;DHT22;24016;52.102;11.584;2023-11-18T13:16:55;6.00;99.90
38209;DHT22;24016;52.102;11.584;2023-11-18T13:19:25;6.00;99.90
38209;DHT22;24016;52.102;11.584;2023-11-18T13:21:51;5.90;99.90
38209;DHT22;24016;52.102;11.584;2023-11-18T13:24:17;6.00;99.90
38209;DHT22;24016;52.102;11.584;2023-11-18T13:26:43;5.90;99.90
38209;DHT22;24016;52.102;11.584;2023-11-18T13:29:10;5.90;99.90
38209;DHT22;24016;52.102;11.584;2023-11-18T13:31:35;5.90;99.90
38209;DHT22;24016;52.102;11.584;2023-11-18T13:34:01;5.80;99.90
38209;DHT22;24016;52.102;11.584;2023-11-18T13:36:27;5.80;99.90
38209;DHT22;24016;52.102;11.584;2023-11-18T13:38:53;5.80;99.90
38209;DHT22;24016;52.102;11.584;2023-11-18T13:41:29;5.80;99.90
38209;DHT22;24016;52.102;11.584;2023-11-18T13:43:54;5.80;99.90
38209;DHT22;24016;52.102;11.584;2023-11-18T13:46:21;5.80;99.90
38209;DHT22;24016;52.102;11.584;2023-11-18T13:48:48;5.80;99.90
38209;DHT22;24016;52.102;11.584;2023-11-18T13:51:15;5.70;99.90
38209;DHT22;24016;52.102;11.584;2023-11-18T13:53:43;5.70;99.90
38209;DHT22;24016;52.102;11.584;2023-11-18T13:56:10;5.70;99.90
38209;DHT22;24016;52.102;11.584;2023-11-18T13:58:37;5.70;99.90
38209;DHT22;24016;52.102;11.584;2023-11-18T14:01:06;5.70;99.90
38209;DHT22;24016;52.102;11.584;2023-11-18T14:03:36;5.70;99.90
38209;DHT22;24016;52.102;11.584;2023-11-18T14:06:05;5.60;99.90
38209;DHT22;24016;52.102;11.584;2023-11-18T14:08:31;5.60;99.90
38209;DHT22;24016;52.102;11.584;2023-11-18T14:10:57;5.60;99.90
38209;DHT22;24016;52.102;11.584;2023-11-18T14:13:23;5.60;99.90
38209;DHT22;24016;52.102;11.584;2023-11-18T14:15:48;5.50;99.90
38209;DHT22;24016;52.102;11.584;2023-11-18T14:18:20;5.50;99.90
38209;DHT22;24016;52.102;11.584;2023-11-18T14:20:46;5.50;99.90
38209;DHT22;24016;52.102;11.584;2023-11-18T14:23:13;5.40;99.90
38209;DHT22;24016;52.102;11.584;2023-11-18T14:25:39;5.40;99.90
38209;DHT22;24016;52.102;11.584;2023-11-18T14:28:05;5.30;99.90
38209;DHT22;24016;52.102;11.584;2023-11-18T14:30:34;5.30;99.90
38209;DHT22;24016;52.102;11.584;2023-11-18T14:33:00;5.30;99.90
38209;DHT22;24016;52.102;11.584;2023-11-18T14:35:25;5.20;99.90
38209;DHT22;24016;52.102;11.584;2023-11-18T14:37:51;5.20;99.90
38209;DHT22;24016;52.102;11.584;2023-11-18T14:40:17;5.20;99.90
38209;DHT22;24016;52.102;11.584;2023-11-18T14:42:43;5.20;99.90
38209;DHT22;24016;52.102;11.584;2023-11-18T14:45:12;5.20;99.90
38209;DHT22;24016;52.102;11.584;2023-11-18T14:47:38;5.10;99.90
38209;DHT22;24016;52.102;11.584;2023-11-18T14:50:05;5.10;99.90
38209;DHT22;24016;52.102;11.584;2023-11-18T14:52:44;5.10;99.90
38209;DHT22;24016;52.102;11.584;2023-11-18T14:55:11;5.00;99.90
38209;DHT22;24016;52.102;11.584;2023-11-18T14:57:41;5.00;99.90
38209;DHT22;24016;52.102;11.584;2023-11-18T15:00:07;5.00;99.90
38209;DHT22;24016;52.102;11.584;2023-11-18T15:02:33;5.00;99.90
38209;DHT22;24016;52.102;11.584;2023-11-18T15:05:00;5.00;99.90
38209;DHT22;24016;52.102;11.584;2023-11-18T15:07:28;4.90;99.90
38209;DHT22;24016;52.102;11.584;2023-11-18T15:09:54;4.90;99.90
38209;DHT22;24016;52.102;11.584;2023-11-18T15:12:19;4.90;99.90
38209;DHT22;24016;52.102;11.584;2023-11-18T15:14:45;4.90;99.90
38209;DHT22;24016;52.102;11.584;2023-11-18T15:17:11;4.80;99.90
38209;DHT22;24016;52.102;11.584;2023-11-18T15:19:39;4.80;99.90
38209;DHT22;24016;52.102;11.584;2023-11-18T15:22:04;4.80;99.90
38209;DHT22;24016;52.102;11.584;2023-11-18T15:24:30;4.80;99.90
38209;DHT22;24016;52.102;11.584;2023-11-18T15:26:57;4.80;99.90
38209;DHT22;24016;52.102;11.584;2023-11-18T15:29:25;4.80;99.90
38209;DHT22;24016;52.102;11.584;2023-11-18T15:31:58;4.80;99.90
38209;DHT22;24016;52.102;11.584;2023-11-18T15:34:24;4.80;99.90
38209;DHT22;24016;52.102;11.584;2023-11-18T15:36:50;4.80;99.90
38209;DHT22;24016;52.102;11.584;2023-11-18T15:39:17;4.70;99.90
38209;DHT22;24016;52.102;11.584;2023-11-18T15:41:42;4.70;99.90
38209;DHT22;24016;52.102;11.584;2023-11-18T15:44:08;4.80;99.90
38209;DHT22;24016;52.102;11.584;2023-11-18T15:46:37;4.70;99.90
38209;DHT22;24016;52.102;11.584;2023-11-18T15:49:03;4.70;99.90
38209;DHT22;24016;52.102;11.584;2023-11-18T15:51:28;4.70;99.90
38209;DHT22;24016;52.102;11.584;2023-11-18T15:53:56;4.70;99.90
38209;DHT22;24016;52.102;11.584;2023-11-18T15:56:22;4.70;99.90